createdAt,value
2023-01-17T00:02:57.856Z,14.27
2023-01-17T00:06:20.155Z,12.13
2023-01-17T00:09:41.590Z,12.95
2023-01-17T00:12:56.063Z,13.62
2023-01-17T00:15:58.810Z,14.05
2023-01-17T00:19:20.956Z,14.02
2023-01-17T00:22:44.794Z,12.83
2023-01-17T00:26:05.990Z,14.75
2023-01-17T00:29:08.958Z,13.57
2023-01-17T00:32:11.790Z,14.23
2023-01-17T00:35:15.473Z,14.93
2023-01-17T00:38:21.181Z,14.00
2023-01-17T00:41:23.824Z,15.57
2023-01-17T00:44:45.661Z,14.05
2023-01-17T00:48:07.332Z,13.85
2023-01-17T00:51:29.109Z,15.82
2023-01-17T00:54:50.731Z,14.17
2023-01-17T00:58:12.384Z,13.80
2023-01-17T01:01:34.278Z,13.68
2023-01-17T01:04:56.123Z,14.63
2023-01-17T01:08:19.557Z,14.15
2023-01-17T01:11:41.808Z,15.07
2023-01-17T01:15:03.385Z,15.27
2023-01-17T01:18:26.323Z,13.73
2023-01-17T01:21:47.934Z,14.25
2023-01-17T01:25:09.702Z,14.65
2023-01-17T01:28:32.893Z,14.37
2023-01-17T01:31:54.496Z,15.45
2023-01-17T01:34:57.134Z,13.85
2023-01-17T01:38:02.487Z,15.90
2023-01-17T01:41:05.486Z,16.00
2023-01-17T01:44:42.689Z,15.27
2023-01-17T01:47:45.493Z,15.82
2023-01-17T01:50:49.968Z,15.43
2023-01-17T01:53:55.931Z,16.02
2023-01-17T01:57:01.243Z,15.55
2023-01-17T02:00:16.577Z,15.23
2023-01-17T02:03:27.502Z,14.87
2023-01-17T02:06:36.087Z,15.50
2023-01-17T02:09:39.537Z,15.88
2023-01-17T02:12:42.600Z,16.40
2023-01-17T02:15:54.481Z,15.27
2023-01-17T02:19:25.462Z,14.50
2023-01-17T02:22:40.389Z,14.85
2023-01-17T02:26:20.486Z,15.40
2023-01-17T02:30:00.042Z,15.30
2023-01-17T02:33:21.398Z,14.33
2023-01-17T02:36:38.853Z,14.87
2023-01-17T02:40:01.470Z,15.25
2023-01-17T02:43:08.971Z,15.20
2023-01-17T02:46:11.643Z,14.63
2023-01-17T02:49:16.619Z,15.10
2023-01-17T02:52:58.528Z,14.38
2023-01-17T02:56:20.157Z,14.43
2023-01-17T02:59:54.173Z,14.50
2023-01-17T03:03:28.535Z,13.52
2023-01-17T03:06:52.703Z,13.53
2023-01-17T03:10:00.119Z,12.35
2023-01-17T03:13:03.765Z,13.23
2023-01-17T03:16:12.774Z,12.43
2023-01-17T03:19:16.172Z,12.77
2023-01-17T03:22:19.280Z,11.67
2023-01-17T03:25:22.034Z,11.70
2023-01-17T03:28:25.535Z,11.65
2023-01-17T03:31:28.609Z,10.88
2023-01-17T03:34:31.679Z,11.10
2023-01-17T03:37:34.681Z,10.90
2023-01-17T03:40:38.026Z,11.05
2023-01-17T03:43:40.893Z,11.02
2023-01-17T03:46:44.598Z,10.90
2023-01-17T03:49:47.353Z,10.88
2023-01-17T03:52:51.465Z,11.30
2023-01-17T03:55:54.176Z,10.55
2023-01-17T03:58:58.645Z,9.90
2023-01-17T04:02:01.744Z,9.73
2023-01-17T04:05:05.444Z,9.43
2023-01-17T04:08:08.263Z,9.80
2023-01-17T04:11:11.310Z,9.07
2023-01-17T04:14:14.039Z,9.43
2023-01-17T04:17:19.161Z,8.48
2023-01-17T04:20:30.991Z,9.45
2023-01-17T04:23:34.586Z,7.80
2023-01-17T04:26:37.573Z,7.97
2023-01-17T04:29:40.737Z,7.72
2023-01-17T04:32:43.382Z,7.50
2023-01-17T04:35:46.819Z,7.03
2023-01-17T04:38:49.822Z,8.07
2023-01-17T04:41:52.754Z,9.02
2023-01-17T04:44:55.781Z,9.35
2023-01-17T04:48:03.381Z,9.52
2023-01-17T04:51:06.325Z,9.60
2023-01-17T04:54:09.546Z,9.83
2023-01-17T04:57:12.335Z,9.93
2023-01-17T05:00:15.949Z,10.88
2023-01-17T05:03:22.698Z,9.50
2023-01-17T05:06:25.669Z,10.35
2023-01-17T05:09:29.015Z,10.47
2023-01-17T05:12:32.074Z,8.90
2023-01-17T05:15:36.944Z,8.20
2023-01-17T05:18:40.325Z,7.62
2023-01-17T05:21:43.133Z,8.90
2023-01-17T05:24:47.489Z,7.93
2023-01-17T05:27:50.259Z,8.00
2023-01-17T05:30:53.388Z,7.90
2023-01-17T05:33:56.064Z,6.93
2023-01-17T05:36:59.233Z,6.55
2023-01-17T05:40:02.086Z,5.80
2023-01-17T05:43:05.405Z,4.87
2023-01-17T05:46:08.658Z,4.80
2023-01-17T05:49:11.686Z,5.37
2023-01-17T05:52:14.836Z,5.32
2023-01-17T05:55:17.735Z,5.63
2023-01-17T05:58:22.180Z,5.25
2023-01-17T06:01:25.432Z,5.78
2023-01-17T06:04:29.175Z,5.50
2023-01-17T06:07:31.891Z,5.05
2023-01-17T06:10:36.043Z,5.30
2023-01-17T06:13:38.799Z,5.12
2023-01-17T06:16:41.920Z,5.30
2023-01-17T06:19:45.544Z,5.72
2023-01-17T06:22:49.039Z,4.80
2023-01-17T06:25:52.063Z,5.00
2023-01-17T06:28:55.032Z,5.25
2023-01-17T06:31:58.406Z,4.68
2023-01-17T06:35:02.699Z,4.68
2023-01-17T06:38:10.533Z,5.18
2023-01-17T06:41:13.826Z,4.77
2023-01-17T06:44:17.215Z,4.57
2023-01-17T06:47:20.375Z,4.78
2023-01-17T06:50:23.474Z,4.22
2023-01-17T06:53:26.729Z,4.12
2023-01-17T06:56:33.062Z,3.90
2023-01-17T06:59:36.348Z,4.07
2023-01-17T07:02:39.594Z,4.68
2023-01-17T07:05:42.851Z,4.30
2023-01-17T07:08:45.685Z,3.67
2023-01-17T07:11:48.903Z,4.20
2023-01-17T07:14:52.371Z,3.97
2023-01-17T07:17:55.564Z,4.62
2023-01-17T07:20:58.722Z,4.32
2023-01-17T07:24:02.897Z,4.65
2023-01-17T07:27:07.360Z,4.23
2023-01-17T07:30:11.428Z,4.68
2023-01-17T07:33:14.703Z,4.55
2023-01-17T07:36:18.200Z,4.65
2023-01-17T07:39:21.404Z,4.47
2023-01-17T07:42:24.729Z,4.60
2023-01-17T07:45:28.088Z,4.60
2023-01-17T07:48:31.468Z,3.97
2023-01-17T07:51:34.570Z,3.90
2023-01-17T07:54:38.062Z,3.67
2023-01-17T07:57:41.533Z,3.67
2023-01-17T08:00:45.163Z,3.50
2023-01-17T08:03:51.273Z,3.72
2023-01-17T08:06:55.173Z,4.35
2023-01-17T08:09:58.337Z,3.72
2023-01-17T08:13:01.232Z,4.70
2023-01-17T08:16:05.038Z,3.45
2023-01-17T08:19:10.351Z,3.92
2023-01-17T08:22:13.961Z,4.15
2023-01-17T08:25:16.780Z,3.80
2023-01-17T08:28:20.460Z,3.90
2023-01-17T08:31:24.599Z,3.65
2023-01-17T08:34:28.154Z,3.42
2023-01-17T08:37:31.004Z,2.60
2023-01-17T08:40:34.729Z,3.37
2023-01-17T08:43:37.514Z,2.70
2023-01-17T08:46:41.620Z,2.97
2023-01-17T08:49:45.211Z,2.10
2023-01-17T08:52:49.162Z,2.05
2023-01-17T08:55:58.640Z,1.77
2023-01-17T08:59:03.207Z,1.10
2023-01-17T09:02:15.080Z,1.95
2023-01-17T09:05:18.267Z,2.28
2023-01-17T09:08:21.088Z,1.70
2023-01-17T09:11:24.368Z,1.33
2023-01-17T09:14:27.644Z,1.23
2023-01-17T09:17:31.453Z,1.30
2023-01-17T09:20:34.537Z,1.15
2023-01-17T09:23:37.874Z,0.60
2023-01-17T09:26:40.963Z,1.50
2023-01-17T09:29:44.135Z,1.10
2023-01-17T09:32:53.458Z,0.85
2023-01-17T09:36:01.502Z,1.45
2023-01-17T09:39:04.558Z,1.30
2023-01-17T09:42:22.150Z,1.00
2023-01-17T09:45:25.768Z,1.23
2023-01-17T09:48:36.901Z,1.00
2023-01-17T09:51:39.848Z,0.90
2023-01-17T09:54:45.687Z,0.80
2023-01-17T09:57:57.870Z,0.90
2023-01-17T10:01:03.620Z,0.60
2023-01-17T10:04:19.198Z,0.60
2023-01-17T10:07:57.303Z,0.30
2023-01-17T10:11:03.192Z,0.50
2023-01-17T10:14:33.354Z,0.60
2023-01-17T10:18:29.519Z,0.80
2023-01-17T10:21:42.276Z,0.80
2023-01-17T10:25:13.065Z,0.32
2023-01-17T10:28:23.443Z,0.47
2023-01-17T10:31:32.140Z,0.60
2023-01-17T10:34:51.951Z,0.67
2023-01-17T10:37:56.919Z,0.45
2023-01-17T10:41:05.294Z,0.43
2023-01-17T10:44:39.524Z,0.52
2023-01-17T10:47:47.025Z,0.20
2023-01-17T10:51:20.382Z,0.40
2023-01-17T10:54:38.218Z,0.40
2023-01-17T10:57:43.371Z,0.52
2023-01-17T11:00:55.971Z,0.30
2023-01-17T11:03:59.063Z,0.30
2023-01-17T11:07:16.621Z,0.33
2023-01-17T11:10:35.699Z,0.40
2023-01-17T11:13:38.956Z,0.62
2023-01-17T11:16:42.211Z,0.40
2023-01-17T11:19:48.941Z,0.37
2023-01-17T11:23:07.060Z,0.47
2023-01-17T11:26:13.116Z,0.60
2023-01-17T11:29:30.888Z,0.30
2023-01-17T11:32:35.188Z,0.32
2023-01-17T11:35:44.619Z,0.40
2023-01-17T11:39:05.495Z,0.30
2023-01-17T11:42:35.010Z,0.30
2023-01-17T11:45:39.033Z,0.22
2023-01-17T11:48:42.180Z,0.30
2023-01-17T11:51:45.184Z,0.30
2023-01-17T11:54:48.923Z,0.40
2023-01-17T11:57:51.921Z,0.43
2023-01-17T12:01:01.060Z,0.30
2023-01-17T12:04:25.323Z,0.40
2023-01-17T12:07:47.558Z,0.40
2023-01-17T12:10:56.638Z,0.70
2023-01-17T12:14:25.604Z,0.40
2023-01-17T12:18:02.171Z,1.00
2023-01-17T12:21:23.613Z,0.80
2023-01-17T12:24:57.134Z,0.50
2023-01-17T12:28:21.727Z,0.43
2023-01-17T12:31:45.124Z,0.45
2023-01-17T12:34:55.068Z,0.65
2023-01-17T12:38:32.224Z,0.70
2023-01-17T12:41:58.712Z,0.65
2023-01-17T12:45:06.032Z,0.67
2023-01-17T12:48:16.327Z,0.70
2023-01-17T12:51:24.273Z,0.75
2023-01-17T12:54:41.857Z,0.75
2023-01-17T12:57:48.154Z,0.80
2023-01-17T13:01:16.445Z,1.17
2023-01-17T13:04:26.294Z,0.98
2023-01-17T13:07:32.033Z,1.33
2023-01-17T13:10:51.363Z,1.50
2023-01-17T13:13:58.003Z,1.50
2023-01-17T13:17:05.234Z,2.07
2023-01-17T13:20:31.906Z,1.77
2023-01-17T13:24:06.211Z,1.45
2023-01-17T13:28:00.037Z,1.20
2023-01-17T13:31:05.870Z,1.50
2023-01-17T13:34:39.152Z,1.63
2023-01-17T13:38:16.242Z,2.87
2023-01-17T13:41:52.884Z,2.67
2023-01-17T13:44:58.293Z,2.87
2023-01-17T13:48:13.035Z,2.20
2023-01-17T13:51:19.768Z,2.20
2023-01-17T13:54:31.793Z,2.53
2023-01-17T13:57:42.286Z,2.08
2023-01-17T14:00:45.209Z,2.40
2023-01-17T14:03:51.605Z,4.93
2023-01-17T14:06:56.632Z,3.33
2023-01-17T14:09:59.678Z,1.73
2023-01-17T14:13:04.381Z,2.40
2023-01-17T14:16:28.733Z,2.10
2023-01-17T14:19:37.169Z,0.95
2023-01-17T14:22:47.242Z,0.83
2023-01-17T14:25:51.538Z,0.60
2023-01-17T14:28:56.019Z,0.68
2023-01-17T14:32:02.703Z,0.93
2023-01-17T14:35:22.305Z,0.90
2023-01-17T14:38:26.657Z,0.70
2023-01-17T14:41:30.089Z,0.60
2023-01-17T14:44:34.175Z,0.73
2023-01-17T14:47:41.657Z,0.65
2023-01-17T14:50:46.650Z,0.57
2023-01-17T14:53:59.938Z,0.63
2023-01-17T14:57:26.708Z,1.10
2023-01-17T15:00:30.311Z,1.42
2023-01-17T15:03:45.953Z,0.93
2023-01-17T15:06:49.328Z,1.00
2023-01-17T15:09:51.906Z,1.40
2023-01-17T15:12:57.028Z,1.10
2023-01-17T15:16:17.187Z,1.17
2023-01-17T15:19:21.911Z,1.23
2023-01-17T15:22:25.933Z,1.50
2023-01-17T15:25:29.385Z,1.83
2023-01-17T15:28:33.804Z,1.20
2023-01-17T15:31:49.445Z,1.50
2023-01-17T15:34:53.449Z,1.77
2023-01-17T15:37:58.345Z,1.90
2023-01-17T15:41:15.176Z,2.00
2023-01-17T15:44:31.158Z,1.90
2023-01-17T15:47:39.385Z,1.73
2023-01-17T15:50:42.575Z,1.80
2023-01-17T15:53:45.219Z,1.25
2023-01-17T15:56:48.185Z,1.50
2023-01-17T16:00:01.852Z,0.95
2023-01-17T16:03:21.184Z,1.00
2023-01-17T16:06:45.713Z,0.68
2023-01-17T16:09:49.217Z,1.00
2023-01-17T16:12:54.044Z,0.90
2023-01-17T16:16:16.040Z,1.10
2023-01-17T16:19:19.182Z,1.00
2023-01-17T16:22:22.051Z,1.48
2023-01-17T16:25:25.326Z,1.15
2023-01-17T16:28:28.229Z,1.30
2023-01-17T16:31:31.503Z,1.20
2023-01-17T16:34:37.344Z,0.95
2023-01-17T16:37:40.241Z,1.20
2023-01-17T16:40:44.555Z,1.12
2023-01-17T16:43:57.851Z,1.17
2023-01-17T16:47:01.432Z,1.45
2023-01-17T16:50:05.635Z,1.77
2023-01-17T16:53:08.647Z,1.80
2023-01-17T16:56:14.781Z,2.17
2023-01-17T16:59:17.614Z,1.50
2023-01-17T17:02:20.872Z,2.22
2023-01-17T17:05:23.834Z,2.08
2023-01-17T17:08:29.528Z,2.22
2023-01-17T17:11:32.626Z,2.45
2023-01-17T17:14:35.578Z,1.60
2023-01-17T17:17:41.271Z,2.35
2023-01-17T17:20:44.973Z,2.00
2023-01-17T17:23:52.846Z,2.03
2023-01-17T17:26:56.220Z,2.40
2023-01-17T17:29:58.925Z,2.00
2023-01-17T17:33:04.733Z,1.90
2023-01-17T17:36:10.345Z,2.30
2023-01-17T17:39:17.386Z,1.73
2023-01-17T17:42:20.812Z,1.67
2023-01-17T17:45:23.871Z,1.60
2023-01-17T17:48:26.716Z,1.70
2023-01-17T17:51:39.096Z,1.90
2023-01-17T17:54:43.111Z,1.70
2023-01-17T17:57:46.294Z,1.70
2023-01-17T18:00:49.743Z,1.43
2023-01-17T18:03:56.867Z,1.70
2023-01-17T18:06:59.783Z,2.22
2023-01-17T18:10:03.835Z,2.33
2023-01-17T18:13:07.050Z,2.67
2023-01-17T18:16:19.594Z,2.90
2023-01-17T18:19:24.785Z,3.60
2023-01-17T18:22:30.173Z,3.53
2023-01-17T18:25:36.430Z,3.33
2023-01-17T18:28:40.120Z,3.78
2023-01-17T18:31:44.454Z,4.17
2023-01-17T18:34:47.860Z,4.00
2023-01-17T18:37:50.665Z,4.87
2023-01-17T18:40:53.817Z,3.92
2023-01-17T18:43:57.919Z,4.37
2023-01-17T18:47:04.811Z,3.73
2023-01-17T18:50:08.861Z,3.62
2023-01-17T18:53:12.420Z,3.47
2023-01-17T18:56:18.900Z,3.00
2023-01-17T18:59:23.419Z,3.15
2023-01-17T19:02:27.300Z,2.83
2023-01-17T19:05:30.165Z,2.80
2023-01-17T19:08:34.620Z,3.12
2023-01-17T19:11:38.279Z,3.17
2023-01-17T19:14:41.253Z,1.98
2023-01-17T19:17:44.924Z,2.57
2023-01-17T19:20:48.237Z,2.15
2023-01-17T19:23:51.779Z,1.52
2023-01-17T19:26:54.789Z,1.27
2023-01-17T19:29:58.402Z,1.40
2023-01-17T19:33:01.430Z,1.43
2023-01-17T19:36:06.547Z,1.02
2023-01-17T19:39:10.155Z,1.00
2023-01-17T19:42:15.999Z,1.30
2023-01-17T19:45:18.979Z,1.12
2023-01-17T19:48:22.594Z,1.10
2023-01-17T19:51:30.042Z,0.77
2023-01-17T19:54:33.517Z,1.05
2023-01-17T19:57:37.405Z,0.80
2023-01-17T20:00:46.540Z,1.08
2023-01-17T20:03:51.152Z,1.03
2023-01-17T20:06:54.021Z,0.75
2023-01-17T20:09:57.879Z,0.90
2023-01-17T20:13:00.726Z,0.70
2023-01-17T20:16:06.010Z,0.70
2023-01-17T20:19:09.032Z,0.70
2023-01-17T20:22:12.613Z,0.85
2023-01-17T20:25:15.941Z,0.80
2023-01-17T20:28:19.478Z,0.80
2023-01-17T20:31:24.979Z,0.60
2023-01-17T20:34:28.201Z,1.13
2023-01-17T20:37:31.379Z,0.90
2023-01-17T20:40:35.465Z,1.70
2023-01-17T20:43:38.446Z,0.70
2023-01-17T20:46:42.196Z,1.12
2023-01-17T20:49:46.346Z,1.03
2023-01-17T20:52:49.786Z,1.02
2023-01-17T20:55:56.694Z,1.08
2023-01-17T20:58:59.992Z,1.00
2023-01-17T21:02:02.936Z,0.70
2023-01-17T21:05:06.867Z,0.83
2023-01-17T21:08:09.912Z,1.00
2023-01-17T21:11:15.338Z,1.10
2023-01-17T21:14:18.443Z,0.80
2023-01-17T21:17:21.601Z,0.70
2023-01-17T21:20:27.375Z,0.70
2023-01-17T21:23:30.546Z,0.80
2023-01-17T21:26:33.459Z,1.05
2023-01-17T21:29:36.646Z,0.88
2023-01-17T21:32:39.838Z,0.90
2023-01-17T21:35:42.900Z,1.10
2023-01-17T21:38:52.211Z,1.00
2023-01-17T21:41:55.585Z,1.15
2023-01-17T21:44:58.432Z,0.98
2023-01-17T21:48:01.663Z,0.98
2023-01-17T21:51:06.396Z,1.00
2023-01-17T21:54:09.449Z,1.25
2023-01-17T21:57:32.546Z,1.40
2023-01-17T22:00:36.337Z,1.10
2023-01-17T22:03:39.375Z,1.23
2023-01-17T22:06:42.148Z,1.60
2023-01-17T22:09:45.075Z,1.48
2023-01-17T22:12:47.773Z,1.60
2023-01-17T22:15:58.805Z,1.62
2023-01-17T22:19:01.353Z,1.58
2023-01-17T22:22:04.440Z,1.63
2023-01-17T22:25:07.450Z,1.75
2023-01-17T22:28:10.514Z,2.45
2023-01-17T22:31:19.108Z,1.77
2023-01-17T22:34:22.898Z,1.85
2023-01-17T22:37:25.941Z,2.33
2023-01-17T22:40:29.021Z,1.73
2023-01-17T22:43:31.825Z,1.75
2023-01-17T22:46:37.279Z,3.22
2023-01-17T22:49:40.101Z,1.77
2023-01-17T22:52:43.250Z,2.00
2023-01-17T22:55:45.877Z,1.95
2023-01-17T22:58:49.449Z,1.70
2023-01-17T23:01:53.938Z,1.87
2023-01-17T23:04:56.971Z,2.00
2023-01-17T23:08:02.169Z,2.30
2023-01-17T23:11:33.253Z,2.20
2023-01-17T23:14:55.077Z,2.62
2023-01-17T23:18:16.875Z,2.50
2023-01-17T23:21:19.486Z,3.00
2023-01-17T23:24:22.577Z,3.13
2023-01-17T23:27:52.860Z,2.60
2023-01-17T23:31:00.933Z,2.28
2023-01-17T23:34:03.762Z,2.87
2023-01-17T23:37:06.985Z,3.10
2023-01-17T23:40:10.741Z,3.77
2023-01-17T23:43:25.883Z,7.35
2023-01-17T23:46:30.263Z,7.05
2023-01-17T23:49:33.505Z,5.30
2023-01-17T23:52:36.439Z,5.60
2023-01-17T23:55:41.489Z,5.47
2023-01-17T23:58:44.432Z,5.12
